createdAt,value
2018-04-18T00:00:38.878Z,9.57
2018-04-18T00:03:07.183Z,9.50
2018-04-18T00:05:34.723Z,10.02
2018-04-18T00:08:02.274Z,11.23
2018-04-18T00:10:29.796Z,8.27
2018-04-18T00:12:57.336Z,9.02
2018-04-18T00:15:24.903Z,8.90
2018-04-18T00:17:52.429Z,10.40
2018-04-18T00:20:19.996Z,10.75
2018-04-18T00:22:47.543Z,10.13
2018-04-18T00:25:15.062Z,8.23
2018-04-18T00:27:42.607Z,8.15
2018-04-18T00:30:10.147Z,8.98
2018-04-18T00:32:37.687Z,9.60
2018-04-18T00:35:05.212Z,9.60
2018-04-18T00:37:33.540Z,12.00
2018-04-18T00:40:01.066Z,9.50
2018-04-18T00:42:28.612Z,8.43
2018-04-18T00:44:56.151Z,9.65
2018-04-18T00:47:24.511Z,12.37
2018-04-18T00:49:52.078Z,8.63
2018-04-18T00:52:19.654Z,10.63
2018-04-18T00:54:47.992Z,8.50
2018-04-18T00:57:15.553Z,10.48
2018-04-18T00:59:43.084Z,7.90
2018-04-18T01:02:10.619Z,9.15
2018-04-18T01:04:38.189Z,9.55
2018-04-18T01:07:05.712Z,9.02
2018-04-18T01:09:33.257Z,12.70
2018-04-18T01:12:00.796Z,9.77
2018-04-18T01:14:28.378Z,8.48
2018-04-18T01:16:55.918Z,9.77
2018-04-18T01:19:23.435Z,9.02
2018-04-18T01:21:50.982Z,11.15
2018-04-18T01:24:19.259Z,9.02
2018-04-18T01:26:47.555Z,8.65
2018-04-18T01:29:15.068Z,9.57
2018-04-18T01:31:44.119Z,9.57
2018-04-18T01:34:11.650Z,8.32
2018-04-18T01:36:39.219Z,9.55
2018-04-18T01:39:06.730Z,8.88
2018-04-18T01:41:34.253Z,9.60
2018-04-18T01:44:01.773Z,9.52
2018-04-18T01:46:30.063Z,10.80
2018-04-18T01:49:10.205Z,12.23
2018-04-18T01:51:38.489Z,10.57
2018-04-18T01:54:06.805Z,12.68
2018-04-18T01:56:34.327Z,10.15
2018-04-18T01:59:01.865Z,9.43
2018-04-18T02:01:30.166Z,9.98
2018-04-18T02:03:57.707Z,12.10
2018-04-18T02:06:25.267Z,10.27
2018-04-18T02:08:53.587Z,13.15
2018-04-18T02:11:21.151Z,14.85
2018-04-18T02:13:48.677Z,8.90
2018-04-18T02:16:16.222Z,15.07
2018-04-18T02:18:43.748Z,10.10
2018-04-18T02:21:11.308Z,14.93
2018-04-18T02:23:40.531Z,9.10
2018-04-18T02:26:08.824Z,11.00
2018-04-18T02:28:37.121Z,11.20
2018-04-18T02:31:04.687Z,11.55
2018-04-18T02:33:32.239Z,9.40
2018-04-18T02:35:59.787Z,10.05
2018-04-18T02:38:27.311Z,10.65
2018-04-18T02:40:54.856Z,14.52
2018-04-18T02:43:22.383Z,10.80
2018-04-18T02:45:49.926Z,9.35
2018-04-18T02:48:17.441Z,10.50
2018-04-18T02:50:45.032Z,12.32
2018-04-18T02:53:12.554Z,19.25
2018-04-18T02:55:40.104Z,9.65
2018-04-18T02:58:07.646Z,13.52
2018-04-18T03:00:35.154Z,10.30
2018-04-18T03:03:02.730Z,12.37
2018-04-18T03:05:30.297Z,8.25
2018-04-18T03:07:57.839Z,13.15
2018-04-18T03:10:25.395Z,14.25
2018-04-18T03:12:52.936Z,11.38
2018-04-18T03:15:21.249Z,10.88
2018-04-18T03:17:48.798Z,11.93
2018-04-18T03:20:16.348Z,20.15
2018-04-18T03:22:43.883Z,12.20
2018-04-18T03:25:11.440Z,10.52
2018-04-18T03:27:39.720Z,9.70
2018-04-18T03:30:08.030Z,11.12
2018-04-18T03:32:35.575Z,11.50
2018-04-18T03:35:03.114Z,12.32
2018-04-18T03:37:31.395Z,10.88
2018-04-18T03:39:59.710Z,15.32
2018-04-18T03:42:27.228Z,11.90
2018-04-18T03:44:54.771Z,14.80
2018-04-18T03:47:22.316Z,12.10
2018-04-18T03:49:49.850Z,11.43
2018-04-18T03:52:17.400Z,11.32
2018-04-18T03:54:44.966Z,16.92
2018-04-18T03:57:12.509Z,15.70
2018-04-18T03:59:40.021Z,10.63
2018-04-18T04:02:09.091Z,10.65
2018-04-18T04:04:36.615Z,10.77
2018-04-18T04:07:04.114Z,12.20
2018-04-18T04:09:31.659Z,11.18
2018-04-18T04:11:59.203Z,12.88
2018-04-18T04:14:26.738Z,10.52
2018-04-18T04:17:06.047Z,10.20
2018-04-18T04:19:45.437Z,10.65
2018-04-18T04:22:24.750Z,9.80
2018-04-18T04:24:52.282Z,9.95
2018-04-18T04:27:19.791Z,10.27
2018-04-18T04:29:48.160Z,10.20
2018-04-18T04:32:15.673Z,14.80
2018-04-18T04:34:43.210Z,12.07
2018-04-18T04:37:10.762Z,10.05
2018-04-18T04:39:38.300Z,10.65
2018-04-18T04:42:05.852Z,12.57
2018-04-18T04:44:33.371Z,9.85
2018-04-18T04:47:00.923Z,21.77
2018-04-18T04:49:29.248Z,11.82
2018-04-18T04:51:56.768Z,15.27
2018-04-18T04:54:24.307Z,11.75
2018-04-18T04:56:51.846Z,11.35
2018-04-18T04:59:19.407Z,16.92
2018-04-18T05:01:46.925Z,15.20
2018-04-18T05:04:15.430Z,10.40
2018-04-18T05:06:42.969Z,11.10
2018-04-18T05:09:10.484Z,10.75
2018-04-18T05:11:38.000Z,14.77
2018-04-18T05:14:05.553Z,12.70
2018-04-18T05:16:33.382Z,12.23
2018-04-18T05:19:00.998Z,11.57
2018-04-18T05:21:28.542Z,12.18
2018-04-18T05:23:56.042Z,9.80
2018-04-18T05:26:24.271Z,12.20
2018-04-18T05:28:51.788Z,16.42
2018-04-18T05:31:20.098Z,15.65
2018-04-18T05:33:47.652Z,11.15
2018-04-18T05:36:15.202Z,12.30
2018-04-18T05:38:42.714Z,15.10
2018-04-18T05:41:10.218Z,11.05
2018-04-18T05:43:37.764Z,16.25
2018-04-18T05:46:06.086Z,11.80
2018-04-18T05:48:33.621Z,11.70
2018-04-18T05:51:01.188Z,23.02
2018-04-18T05:53:29.451Z,18.48
2018-04-18T05:55:56.969Z,17.37
2018-04-18T05:58:24.555Z,20.17
2018-04-18T06:00:52.104Z,15.80
2018-04-18T06:03:19.654Z,13.35
2018-04-18T06:05:47.263Z,15.60
2018-04-18T06:08:14.770Z,18.30
2018-04-18T06:10:42.295Z,20.40
2018-04-18T06:13:09.813Z,15.73
2018-04-18T06:15:37.381Z,15.35
2018-04-18T06:18:04.908Z,14.52
2018-04-18T06:20:33.236Z,13.32
2018-04-18T06:23:00.787Z,11.63
2018-04-18T06:25:28.319Z,14.45
2018-04-18T06:27:55.848Z,13.73
2018-04-18T06:30:23.400Z,13.77
2018-04-18T06:32:50.971Z,10.73
2018-04-18T06:35:18.490Z,10.30
2018-04-18T06:37:46.023Z,8.65
2018-04-18T06:40:13.570Z,9.43
2018-04-18T06:42:41.119Z,9.13
2018-04-18T06:45:08.646Z,9.45
2018-04-18T06:47:36.174Z,9.00
2018-04-18T06:50:03.694Z,8.80
2018-04-18T06:52:31.209Z,8.50
2018-04-18T06:54:58.721Z,8.32
2018-04-18T06:57:27.039Z,10.55
2018-04-18T06:59:54.605Z,7.80
2018-04-18T07:02:22.138Z,11.30
2018-04-18T07:04:49.658Z,9.77
2018-04-18T07:07:17.202Z,8.77
2018-04-18T07:09:44.770Z,9.00
2018-04-18T07:12:12.324Z,9.60
2018-04-18T07:14:40.616Z,8.60
2018-04-18T07:17:08.925Z,8.95
2018-04-18T07:19:36.464Z,9.13
2018-04-18T07:22:03.987Z,9.85
2018-04-18T07:24:31.515Z,8.70
2018-04-18T07:26:59.099Z,13.95
2018-04-18T07:29:26.619Z,8.00
2018-04-18T07:31:54.172Z,12.32
2018-04-18T07:34:21.808Z,9.68
2018-04-18T07:36:49.330Z,10.67
2018-04-18T07:39:16.863Z,10.10
2018-04-18T07:41:44.398Z,10.07
2018-04-18T07:44:11.916Z,10.83
2018-04-18T07:46:39.471Z,10.63
2018-04-18T07:49:06.999Z,9.80
2018-04-18T07:51:34.548Z,10.37
2018-04-18T07:54:02.078Z,11.90
2018-04-18T07:56:29.624Z,11.63
2018-04-18T07:58:57.913Z,10.30
2018-04-18T08:01:26.202Z,9.63
2018-04-18T08:03:53.724Z,11.90
2018-04-18T08:06:21.272Z,10.30
2018-04-18T08:08:48.798Z,10.40
2018-04-18T08:11:16.330Z,12.13
2018-04-18T08:13:43.867Z,9.00
2018-04-18T08:16:12.159Z,11.17
2018-04-18T08:18:39.681Z,14.00
2018-04-18T08:21:07.229Z,10.83
2018-04-18T08:23:34.774Z,10.30
2018-04-18T08:26:02.318Z,11.73
2018-04-18T08:28:29.860Z,10.50
2018-04-18T08:30:57.419Z,10.07
2018-04-18T08:33:24.947Z,16.87
2018-04-18T08:35:52.488Z,15.17
2018-04-18T08:38:20.010Z,10.33
2018-04-18T08:40:48.255Z,15.03
2018-04-18T08:43:15.804Z,10.20
2018-04-18T08:45:44.116Z,16.70
2018-04-18T08:48:11.696Z,10.57
2018-04-18T08:50:39.202Z,13.23
2018-04-18T08:53:07.499Z,10.40
2018-04-18T08:55:35.024Z,9.50
2018-04-18T08:58:02.568Z,10.63
2018-04-18T09:00:30.119Z,8.70
2018-04-18T09:02:57.626Z,13.73
2018-04-18T09:05:25.176Z,9.37
2018-04-18T09:07:53.499Z,14.20
2018-04-18T09:10:21.045Z,8.80
2018-04-18T09:12:48.590Z,13.60
2018-04-18T09:15:16.096Z,8.73
2018-04-18T09:17:43.627Z,12.97
2018-04-18T09:20:11.144Z,8.87
2018-04-18T09:22:39.446Z,9.00
2018-04-18T09:25:06.958Z,8.90
2018-04-18T09:27:34.502Z,13.03
2018-04-18T09:30:02.034Z,8.57
2018-04-18T09:32:29.582Z,9.17
2018-04-18T09:34:57.107Z,8.57
2018-04-18T09:37:25.399Z,15.33
2018-04-18T09:39:52.905Z,8.10
2018-04-18T09:42:20.445Z,10.37
2018-04-18T09:44:47.966Z,9.37
2018-04-18T09:47:15.522Z,12.90
2018-04-18T09:49:43.049Z,13.47
2018-04-18T09:52:10.590Z,8.67
2018-04-18T09:54:38.133Z,12.47
2018-04-18T09:57:05.669Z,12.17
2018-04-18T09:59:33.232Z,8.97
2018-04-18T10:02:06.475Z,8.67
2018-04-18T10:04:34.016Z,15.10
2018-04-18T10:07:01.565Z,8.10
2018-04-18T10:09:29.114Z,12.37
2018-04-18T10:11:56.672Z,7.77
2018-04-18T10:14:24.192Z,8.17
2018-04-18T10:16:52.493Z,11.83
2018-04-18T10:19:20.019Z,8.77
2018-04-18T10:21:47.530Z,5.83
2018-04-18T10:24:15.049Z,6.00
2018-04-18T10:26:43.435Z,7.03
2018-04-18T10:29:10.972Z,5.27
2018-04-18T10:31:39.315Z,3.97
2018-04-18T10:34:06.775Z,4.50
2018-04-18T10:36:34.276Z,4.10
2018-04-18T10:39:01.832Z,5.10
2018-04-18T10:41:30.164Z,6.33
2018-04-18T10:43:57.694Z,6.50
2018-04-18T10:46:25.238Z,5.03
2018-04-18T10:48:52.791Z,5.67
2018-04-18T10:51:20.341Z,4.93
2018-04-18T10:53:49.545Z,6.40
2018-04-18T10:56:17.082Z,5.33
2018-04-18T10:58:45.371Z,6.10
2018-04-18T11:01:13.674Z,12.07
2018-04-18T11:03:41.200Z,5.20
2018-04-18T11:06:08.711Z,5.33
2018-04-18T11:08:36.288Z,7.20
2018-04-18T11:11:03.831Z,4.80
2018-04-18T11:13:31.376Z,11.17
2018-04-18T11:15:58.935Z,5.27
2018-04-18T11:18:27.218Z,4.70
2018-04-18T11:20:54.777Z,5.73
2018-04-18T11:23:22.291Z,6.30
2018-04-18T11:25:50.615Z,5.13
2018-04-18T11:28:18.141Z,4.93
2018-04-18T11:30:45.784Z,4.43
2018-04-18T11:33:13.338Z,5.03
2018-04-18T11:35:40.893Z,4.13
2018-04-18T11:38:09.941Z,4.90
2018-04-18T11:40:37.494Z,4.73
2018-04-18T11:43:05.005Z,4.53
2018-04-18T11:45:32.652Z,4.93
2018-04-18T11:48:00.176Z,8.20
2018-04-18T11:50:27.711Z,4.93
2018-04-18T11:52:55.224Z,4.67
2018-04-18T11:55:22.763Z,5.70
2018-04-18T11:57:50.319Z,4.30
2018-04-18T12:00:17.854Z,4.40
2018-04-18T12:02:45.387Z,5.50
2018-04-18T12:05:12.926Z,4.30
2018-04-18T12:07:40.439Z,4.27
2018-04-18T12:10:07.980Z,4.83
2018-04-18T12:12:35.493Z,5.20
2018-04-18T12:15:03.033Z,5.40
2018-04-18T12:17:30.557Z,4.53
2018-04-18T12:19:58.082Z,4.90
2018-04-18T12:22:25.627Z,6.77
2018-04-18T12:24:53.194Z,6.90
2018-04-18T12:27:20.738Z,5.77
2018-04-18T12:29:48.291Z,5.60
2018-04-18T12:32:15.819Z,6.60
2018-04-18T12:34:43.330Z,5.00
2018-04-18T12:37:10.868Z,4.60
2018-04-18T12:39:38.404Z,6.13
2018-04-18T12:42:05.930Z,5.10
2018-04-18T12:44:33.479Z,9.33
2018-04-18T12:47:01.902Z,7.33
2018-04-18T12:49:29.441Z,10.67
2018-04-18T12:51:57.031Z,4.53
2018-04-18T12:54:24.556Z,6.00
2018-04-18T12:56:52.072Z,6.50
2018-04-18T12:59:19.603Z,5.77
2018-04-18T13:01:47.138Z,5.30
2018-04-18T13:04:14.667Z,5.07
2018-04-18T13:06:42.178Z,4.63
2018-04-18T13:09:09.693Z,4.37
2018-04-18T13:11:37.978Z,4.80
2018-04-18T13:14:06.261Z,5.63
2018-04-18T13:16:33.771Z,5.00
2018-04-18T13:19:02.072Z,4.70
2018-04-18T13:21:29.615Z,5.27
2018-04-18T13:23:57.185Z,6.57
2018-04-18T13:26:24.762Z,6.30
2018-04-18T13:28:52.302Z,5.33
2018-04-18T13:31:19.847Z,3.87
2018-04-18T13:33:47.386Z,4.67
2018-04-18T13:36:14.931Z,3.90
2018-04-18T13:38:42.447Z,4.23
2018-04-18T13:41:10.749Z,4.23
2018-04-18T13:43:38.292Z,3.70
2018-04-18T13:46:05.802Z,4.63
2018-04-18T13:48:33.332Z,4.80
2018-04-18T13:51:00.864Z,3.67
2018-04-18T13:53:28.407Z,5.43
2018-04-18T13:55:56.010Z,4.37
2018-04-18T13:58:23.531Z,3.80
2018-04-18T14:00:51.812Z,3.60
2018-04-18T14:03:20.087Z,3.63
2018-04-18T14:05:48.354Z,4.20
2018-04-18T14:08:16.669Z,5.57
2018-04-18T14:10:44.182Z,3.50
2018-04-18T14:13:11.693Z,4.37
2018-04-18T14:15:39.240Z,6.90
2018-04-18T14:18:06.756Z,5.37
2018-04-18T14:20:34.259Z,4.90
2018-04-18T14:23:01.781Z,5.67
2018-04-18T14:25:30.099Z,5.40
2018-04-18T14:27:57.652Z,5.30
2018-04-18T14:30:25.196Z,4.37
2018-04-18T14:32:52.717Z,5.50
2018-04-18T14:35:20.244Z,6.20
2018-04-18T14:37:47.784Z,4.87
2018-04-18T14:40:15.311Z,5.57
2018-04-18T14:42:42.828Z,5.97
2018-04-18T14:45:10.384Z,6.97
2018-04-18T14:47:37.942Z,5.87
2018-04-18T14:50:05.520Z,6.03
2018-04-18T14:52:33.068Z,5.40
2018-04-18T14:55:00.616Z,6.23
2018-04-18T14:57:28.127Z,5.00
2018-04-18T14:59:56.434Z,8.90
2018-04-18T15:02:23.977Z,7.73
2018-04-18T15:04:51.512Z,9.07
2018-04-18T15:07:19.799Z,7.67
2018-04-18T15:09:48.213Z,5.73
2018-04-18T15:12:15.736Z,6.33
2018-04-18T15:14:44.032Z,5.80
2018-04-18T15:17:11.569Z,4.80
2018-04-18T15:19:39.108Z,5.80
2018-04-18T15:22:07.429Z,8.17
2018-04-18T15:24:34.963Z,6.37
2018-04-18T15:27:03.275Z,5.40
2018-04-18T15:29:30.824Z,8.87
2018-04-18T15:31:58.385Z,6.00
2018-04-18T15:34:25.927Z,6.70
2018-04-18T15:36:53.487Z,7.73
2018-04-18T15:39:21.034Z,6.40
2018-04-18T15:41:49.356Z,6.53
2018-04-18T15:44:16.896Z,6.30
2018-04-18T15:46:44.419Z,6.20
2018-04-18T15:49:11.971Z,6.30
2018-04-18T15:51:39.506Z,5.93
2018-04-18T15:54:07.057Z,6.43
2018-04-18T15:56:34.620Z,7.60
2018-04-18T15:59:02.183Z,6.43
2018-04-18T16:01:29.725Z,6.87
2018-04-18T16:03:57.289Z,6.40
2018-04-18T16:06:24.822Z,6.07
2018-04-18T16:08:52.390Z,5.63
2018-04-18T16:11:19.990Z,6.37
2018-04-18T16:13:47.557Z,5.87
2018-04-18T16:16:15.097Z,6.00
2018-04-18T16:18:43.410Z,6.77
2018-04-18T16:21:11.711Z,5.80
2018-04-18T16:23:40.011Z,6.37
2018-04-18T16:26:07.531Z,5.30
2018-04-18T16:28:35.102Z,7.67
2018-04-18T16:31:03.418Z,6.30
2018-04-18T16:33:30.976Z,8.17
2018-04-18T16:35:58.502Z,6.20
2018-04-18T16:38:26.807Z,7.60
2018-04-18T16:40:54.318Z,9.87
2018-04-18T16:43:21.905Z,7.70
2018-04-18T16:45:49.476Z,7.90
2018-04-18T16:48:17.089Z,9.50
2018-04-18T16:50:44.675Z,9.30
2018-04-18T16:53:12.222Z,8.43
2018-04-18T16:55:39.796Z,6.80
2018-04-18T16:58:07.463Z,9.53
2018-04-18T17:00:35.096Z,7.70
2018-04-18T17:03:03.413Z,7.53
2018-04-18T17:05:30.975Z,6.47
2018-04-18T17:07:58.546Z,6.40
2018-04-18T17:10:26.119Z,6.80
2018-04-18T17:12:53.685Z,5.23
2018-04-18T17:15:21.231Z,5.83
2018-04-18T17:17:48.773Z,6.40
2018-04-18T17:20:16.292Z,6.10
2018-04-18T17:22:43.869Z,5.53
2018-04-18T17:25:11.997Z,5.50
2018-04-18T17:27:40.138Z,4.13
2018-04-18T17:30:07.704Z,5.00
2018-04-18T17:32:35.246Z,5.60
2018-04-18T17:35:02.799Z,4.87
2018-04-18T17:37:30.357Z,4.80
2018-04-18T17:39:57.911Z,5.33
2018-04-18T17:42:25.473Z,5.60
2018-04-18T17:44:53.023Z,5.83
2018-04-18T17:47:20.563Z,5.80
2018-04-18T17:49:48.116Z,6.07
2018-04-18T17:52:16.409Z,4.77
2018-04-18T17:54:44.737Z,4.40
2018-04-18T17:57:12.303Z,5.17
2018-04-18T17:59:39.830Z,7.73
2018-04-18T18:02:07.375Z,3.87
2018-04-18T18:04:34.923Z,5.10
2018-04-18T18:07:02.535Z,4.80
2018-04-18T18:09:30.080Z,5.60
2018-04-18T18:11:57.593Z,5.00
2018-04-18T18:14:25.144Z,5.33
2018-04-18T18:16:53.450Z,6.77
2018-04-18T18:19:20.994Z,4.60
2018-04-18T18:21:48.581Z,4.30
2018-04-18T18:24:16.115Z,4.80
2018-04-18T18:26:43.697Z,5.20
2018-04-18T18:29:11.249Z,5.63
2018-04-18T18:31:38.880Z,5.00
2018-04-18T18:34:06.388Z,11.60
2018-04-18T18:36:33.947Z,4.77
2018-04-18T18:39:01.518Z,4.60
2018-04-18T18:41:29.077Z,5.87
2018-04-18T18:43:56.645Z,4.90
2018-04-18T18:46:24.973Z,6.50
2018-04-18T18:48:52.528Z,6.77
2018-04-18T18:51:20.138Z,4.80
2018-04-18T18:53:47.671Z,6.43
2018-04-18T18:56:15.228Z,6.57
2018-04-18T18:58:42.767Z,6.77
2018-04-18T19:01:10.341Z,6.13
2018-04-18T19:03:37.866Z,6.43
2018-04-18T19:06:05.421Z,5.33
2018-04-18T19:08:33.744Z,5.30
2018-04-18T19:11:01.264Z,5.40
2018-04-18T19:13:28.803Z,5.10
2018-04-18T19:15:56.343Z,8.13
2018-04-18T19:18:23.884Z,6.17
2018-04-18T19:20:51.431Z,11.20
2018-04-18T19:23:18.954Z,9.10
2018-04-18T19:25:47.236Z,8.70
2018-04-18T19:28:14.839Z,8.83
2018-04-18T19:30:42.349Z,8.07
2018-04-18T19:33:09.911Z,8.07
2018-04-18T19:35:37.462Z,9.70
2018-04-18T19:38:04.999Z,10.27
2018-04-18T19:40:33.287Z,10.20
2018-04-18T19:43:00.863Z,12.80
2018-04-18T19:45:28.430Z,17.80
2018-04-18T19:47:55.991Z,10.77
2018-04-18T19:50:23.515Z,12.13
2018-04-18T19:52:51.849Z,11.60
2018-04-18T19:55:19.612Z,12.13
2018-04-18T19:57:47.175Z,19.13
2018-04-18T20:00:14.731Z,27.67
2018-04-18T20:02:42.251Z,15.03
2018-04-18T20:05:10.639Z,11.23
2018-04-18T20:07:38.123Z,7.90
2018-04-18T20:10:05.645Z,6.97
2018-04-18T20:12:33.975Z,6.70
2018-04-18T20:15:01.526Z,7.37
2018-04-18T20:17:29.038Z,6.00
2018-04-18T20:19:57.322Z,7.73
2018-04-18T20:22:25.636Z,7.73
2018-04-18T20:24:53.212Z,8.23
2018-04-18T20:27:20.778Z,9.60
2018-04-18T20:29:48.307Z,9.73
2018-04-18T20:32:15.867Z,10.43
2018-04-18T20:34:43.430Z,11.33
2018-04-18T20:37:10.977Z,12.93
2018-04-18T20:39:38.516Z,11.83
2018-04-18T20:42:06.061Z,8.33
2018-04-18T20:44:33.634Z,9.37
2018-04-18T20:47:01.175Z,9.27
2018-04-18T20:49:29.482Z,9.00
2018-04-18T20:51:57.035Z,10.03
2018-04-18T20:54:24.591Z,10.53
2018-04-18T20:56:52.115Z,9.60
2018-04-18T20:59:19.654Z,9.97
2018-04-18T21:01:47.186Z,9.13
2018-04-18T21:04:14.713Z,9.47
2018-04-18T21:06:42.279Z,9.90
2018-04-18T21:09:09.831Z,10.33
2018-04-18T21:11:37.385Z,8.80
2018-04-18T21:14:05.701Z,8.60
2018-04-18T21:16:33.253Z,8.20
2018-04-18T21:19:00.808Z,8.27
2018-04-18T21:21:28.345Z,9.60
2018-04-18T21:23:55.887Z,9.67
2018-04-18T21:26:24.212Z,9.53
2018-04-18T21:28:51.732Z,9.80
2018-04-18T21:31:19.273Z,10.50
2018-04-18T21:33:46.825Z,9.80
2018-04-18T21:36:14.380Z,9.93
2018-04-18T21:38:41.915Z,10.60
2018-04-18T21:41:09.469Z,10.50
2018-04-18T21:43:37.040Z,10.57
2018-04-18T21:46:04.631Z,10.13
2018-04-18T21:48:32.165Z,10.97
2018-04-18T21:50:59.716Z,11.27
2018-04-18T21:53:27.258Z,11.43
2018-04-18T21:55:54.796Z,10.30
2018-04-18T21:58:22.314Z,11.80
2018-04-18T22:00:50.436Z,12.00
2018-04-18T22:03:17.992Z,11.33
2018-04-18T22:05:45.542Z,10.10
2018-04-18T22:08:13.099Z,11.87
2018-04-18T22:10:40.678Z,11.07
2018-04-18T22:13:08.235Z,10.87
2018-04-18T22:15:35.787Z,10.80
2018-04-18T22:18:03.351Z,12.10
2018-04-18T22:20:30.892Z,11.53
2018-04-18T22:22:58.446Z,10.80
2018-04-18T22:25:25.967Z,11.53
2018-04-18T22:27:53.528Z,10.97
2018-04-18T22:30:21.081Z,13.73
2018-04-18T22:32:48.635Z,18.87
2018-04-18T22:35:16.195Z,11.60
2018-04-18T22:37:43.746Z,12.33
2018-04-18T22:40:11.299Z,11.40
2018-04-18T22:42:38.859Z,10.63
2018-04-18T22:45:06.405Z,11.27
2018-04-18T22:47:33.938Z,11.30
2018-04-18T22:50:01.469Z,10.33
2018-04-18T22:52:29.073Z,11.60
2018-04-18T22:54:56.598Z,11.80
2018-04-18T22:57:24.904Z,10.37
2018-04-18T22:59:52.463Z,11.73
2018-04-18T23:02:20.019Z,11.60
2018-04-18T23:04:47.544Z,11.60
2018-04-18T23:07:15.858Z,12.27
2018-04-18T23:09:43.441Z,11.97
2018-04-18T23:12:11.008Z,12.93
2018-04-18T23:14:38.542Z,13.17
2018-04-18T23:17:06.067Z,13.90
2018-04-18T23:19:34.367Z,12.13
2018-04-18T23:22:01.902Z,11.83
2018-04-18T23:24:29.434Z,11.37
2018-04-18T23:26:56.986Z,13.37
2018-04-18T23:29:24.515Z,12.60
2018-04-18T23:31:52.022Z,13.60
2018-04-18T23:34:19.668Z,18.20
2018-04-18T23:36:47.181Z,12.93
2018-04-18T23:39:14.731Z,12.50
2018-04-18T23:41:42.288Z,11.90
2018-04-18T23:44:09.837Z,12.73
2018-04-18T23:46:38.132Z,12.30
2018-04-18T23:49:05.691Z,11.15
2018-04-18T23:51:33.244Z,13.33
2018-04-18T23:54:00.823Z,11.03
2018-04-18T23:56:28.360Z,12.83
2018-04-18T23:58:55.934Z,12.90
